TimeMDT,TemperatureF,Dew PointF,Humidity,Sea Level PressureIn,VisibilityMPH,Wind Direction,Wind SpeedMPH,Gust SpeedMPH,PrecipitationIn,Events,Conditions,WindDirDegrees,DateUTC
10:15 AM,35.6,24.8,65,30.14,10.0,West,3.5,-,N/A,,Clear,270,2013-10-17 16:15:00
10:55 AM,39.2,23.0,52,30.14,10.0,West,11.5,-,N/A,,Clear,270,2013-10-17 16:55:00
11:15 AM,41.0,23.0,49,30.14,10.0,West,11.5,-,N/A,,Clear,280,2013-10-17 17:15:00
11:35 AM,41.0,24.8,53,30.13,10.0,WNW,11.5,17.3,N/A,,Scattered Clouds,290,2013-10-17 17:35:00
11:55 AM,42.8,23.0,46,30.13,10.0,West,11.5,17.3,N/A,,Mostly Cloudy,260,2013-10-17 17:55:00
12:15 PM,42.8,23.0,46,30.12,10.0,West,16.1,19.6,N/A,,Overcast,260,2013-10-17 18:15:00
12:35 PM,42.8,23.0,46,30.11,10.0,West,13.8,19.6,N/A,,Overcast,270,2013-10-17 18:35:00
12:55 PM,42.8,23.0,46,30.11,10.0,West,16.1,20.7,N/A,,Overcast,280,2013-10-17 18:55:00
1:15 PM,42.8,23.0,46,30.10,10.0,WNW,16.1,19.6,N/A,,Overcast,300,2013-10-17 19:15:00
1:35 PM,42.8,23.0,46,30.09,10.0,WNW,19.6,24.2,N/A,,Mostly Cloudy,290,2013-10-17 19:35:00
1:55 PM,46.4,23.0,40,30.08,10.0,West,13.8,25.3,N/A,,Overcast,270,2013-10-17 19:55:00
2:15 PM,42.8,23.0,46,30.08,10.0,West,16.1,-,N/A,,Mostly Cloudy,280,2013-10-17 20:15:00
2:35 PM,44.6,23.0,43,30.08,10.0,WNW,16.1,21.9,N/A,,Mostly Cloudy,290,2013-10-17 20:35:00
2:55 PM,44.6,24.8,46,30.07,10.0,West,19.6,24.2,N/A,,Mostly Cloudy,280,2013-10-17 20:55:00
3:15 PM,44.6,24.8,46,30.08,10.0,WNW,18.4,26.5,N/A,,Overcast,300,2013-10-17 21:15:00
3:35 PM,42.8,23.0,46,30.08,10.0,WNW,18.4,24.2,N/A,,Overcast,300,2013-10-17 21:35:00
3:55 PM,42.8,24.8,49,30.08,10.0,West,18.4,23.0,N/A,,Overcast,280,2013-10-17 21:55:00
4:15 PM,42.8,26.6,53,30.08,10.0,WNW,18.4,24.2,N/A,,Overcast,290,2013-10-17 22:15:00
4:35 PM,41.0,26.6,57,30.08,10.0,WNW,17.3,25.3,N/A,,Mostly Cloudy,290,2013-10-17 22:35:00
4:55 PM,41.0,26.6,57,30.08,10.0,WNW,20.7,25.3,N/A,,Mostly Cloudy,290,2013-10-17 22:55:00
5:15 PM,39.2,26.6,61,30.08,10.0,WNW,19.6,27.6,N/A,,Scattered Clouds,290,2013-10-17 23:15:00
5:35 PM,39.2,28.4,65,30.09,10.0,WNW,18.4,24.2,N/A,,Scattered Clouds,300,2013-10-17 23:35:00
5:55 PM,37.4,26.6,65,30.10,10.0,WNW,17.3,23.0,N/A,,Mostly Cloudy,300,2013-10-17 23:55:00
6:15 PM,37.4,26.6,65,30.10,10.0,WNW,16.1,-,N/A,,Scattered Clouds,300,2013-10-18 00:15:00
6:35 PM,35.6,26.6,70,30.11,10.0,NW,11.5,20.7,N/A,,Mostly Cloudy,310,2013-10-18 00:35:00
6:55 PM,33.8,26.6,75,30.11,10.0,NNW,10.4,-,N/A,,Mostly Cloudy,340,2013-10-18 00:55:00
7:15 PM,35.6,26.6,70,30.12,10.0,NW,13.8,19.6,N/A,,Scattered Clouds,310,2013-10-18 01:15:00
7:35 PM,33.8,24.8,70,30.11,10.0,WNW,15.0,23.0,N/A,,Clear,300,2013-10-18 01:35:00